sensor_id;sensor_type;location;lat;lon;timestamp;pressure;altitude;pressure_sealevel;temperature
20103;BMP180;10210;52.284;9.892;2023-07-09T00:00:18;100950.00;;;29.70
20103;BMP180;10210;52.284;9.892;2023-07-09T00:02:45;100953.00;;;29.60
20103;BMP180;10210;52.284;9.892;2023-07-09T00:05:16;100954.00;;;29.60
20103;BMP180;10210;52.284;9.892;2023-07-09T00:07:44;100958.00;;;29.50
20103;BMP180;10210;52.284;9.892;2023-07-09T00:10:19;100955.00;;;29.50
20103;BMP180;10210;52.284;9.892;2023-07-09T00:12:47;100956.00;;;29.50
20103;BMP180;10210;52.284;9.892;2023-07-09T00:15:15;100961.00;;;29.50
20103;BMP180;10210;52.284;9.892;2023-07-09T00:17:42;100963.00;;;29.50
20103;BMP180;10210;52.284;9.892;2023-07-09T00:20:15;100955.00;;;29.40
20103;BMP180;10210;52.284;9.892;2023-07-09T00:22:43;100955.00;;;29.40
20103;BMP180;10210;52.284;9.892;2023-07-09T00:25:13;100959.00;;;29.40
20103;BMP180;10210;52.284;9.892;2023-07-09T00:27:42;100961.00;;;29.40
20103;BMP180;10210;52.284;9.892;2023-07-09T00:30:22;100954.00;;;29.30
20103;BMP180;10210;52.284;9.892;2023-07-09T00:32:49;100953.00;;;29.30
20103;BMP180;10210;52.284;9.892;2023-07-09T00:35:18;100950.00;;;29.30
20103;BMP180;10210;52.284;9.892;2023-07-09T00:37:45;100945.00;;;29.20
20103;BMP180;10210;52.284;9.892;2023-07-09T00:40:22;100947.00;;;29.10
20103;BMP180;10210;52.284;9.892;2023-07-09T00:42:51;100961.00;;;29.10
20103;BMP180;10210;52.284;9.892;2023-07-09T00:45:25;100962.00;;;29.00
20103;BMP180;10210;52.284;9.892;2023-07-09T00:48:00;100962.00;;;29.00
20103;BMP180;10210;52.284;9.892;2023-07-09T00:50:40;100958.00;;;29.00
20103;BMP180;10210;52.284;9.892;2023-07-09T00:53:20;100967.00;;;29.00
20103;BMP180;10210;52.284;9.892;2023-07-09T00:55:57;100955.00;;;29.00
20103;BMP180;10210;52.284;9.892;2023-07-09T00:58:25;100960.00;;;29.00
20103;BMP180;10210;52.284;9.892;2023-07-09T01:01:00;100944.00;;;29.00
20103;BMP180;10210;52.284;9.892;2023-07-09T01:03:49;100947.00;;;28.90
20103;BMP180;10210;52.284;9.892;2023-07-09T01:06:25;100942.00;;;28.90
20103;BMP180;10210;52.284;9.892;2023-07-09T01:08:55;100948.00;;;28.90
20103;BMP180;10210;52.284;9.892;2023-07-09T01:11:22;100949.00;;;28.80
20103;BMP180;10210;52.284;9.892;2023-07-09T01:13:51;100946.00;;;28.80
20103;BMP180;10210;52.284;9.892;2023-07-09T01:16:25;100943.00;;;28.70
20103;BMP180;10210;52.284;9.892;2023-07-09T01:18:53;100934.00;;;28.70
20103;BMP180;10210;52.284;9.892;2023-07-09T01:21:19;100936.00;;;28.70
20103;BMP180;10210;52.284;9.892;2023-07-09T01:23:48;100933.00;;;28.70
20103;BMP180;10210;52.284;9.892;2023-07-09T01:26:20;100943.00;;;28.60
20103;BMP180;10210;52.284;9.892;2023-07-09T01:28:47;100938.00;;;28.60
20103;BMP180;10210;52.284;9.892;2023-07-09T01:31:15;100939.00;;;28.50
20103;BMP180;10210;52.284;9.892;2023-07-09T01:33:42;100939.00;;;28.40
20103;BMP180;10210;52.284;9.892;2023-07-09T01:36:12;100950.00;;;28.30
20103;BMP180;10210;52.284;9.892;2023-07-09T01:38:40;100943.00;;;28.30
20103;BMP180;10210;52.284;9.892;2023-07-09T01:41:07;100943.00;;;28.20
20103;BMP180;10210;52.284;9.892;2023-07-09T01:43:35;100935.00;;;28.20
20103;BMP180;10210;52.284;9.892;2023-07-09T01:46:00;100944.00;;;28.20
20103;BMP180;10210;52.284;9.892;2023-07-09T01:48:27;100937.00;;;28.10
20103;BMP180;10210;52.284;9.892;2023-07-09T01:50:54;100938.00;;;28.10
20103;BMP180;10210;52.284;9.892;2023-07-09T01:53:23;100934.00;;;28.00
20103;BMP180;10210;52.284;9.892;2023-07-09T01:55:51;100939.00;;;28.00
20103;BMP180;10210;52.284;9.892;2023-07-09T01:58:17;100931.00;;;27.90
20103;BMP180;10210;52.284;9.892;2023-07-09T02:00:44;100936.00;;;27.90
20103;BMP180;10210;52.284;9.892;2023-07-09T02:03:11;100931.00;;;27.80
20103;BMP180;10210;52.284;9.892;2023-07-09T02:05:36;100928.00;;;27.70
20103;BMP180;10210;52.284;9.892;2023-07-09T02:08:03;100928.00;;;27.70
20103;BMP180;10210;52.284;9.892;2023-07-09T02:10:29;100928.00;;;27.70
20103;BMP180;10210;52.284;9.892;2023-07-09T02:12:54;100925.00;;;27.60
20103;BMP180;10210;52.284;9.892;2023-07-09T02:15:20;100947.00;;;27.70
20103;BMP180;10210;52.284;9.892;2023-07-09T02:17:46;100946.00;;;27.60
20103;BMP180;10210;52.284;9.892;2023-07-09T02:20:13;100950.00;;;27.70
20103;BMP180;10210;52.284;9.892;2023-07-09T02:22:40;100942.00;;;27.70
20103;BMP180;10210;52.284;9.892;2023-07-09T02:25:07;100943.00;;;27.70
20103;BMP180;10210;52.284;9.892;2023-07-09T02:27:35;100943.00;;;27.60
20103;BMP180;10210;52.284;9.892;2023-07-09T02:30:01;100946.00;;;27.60
20103;BMP180;10210;52.284;9.892;2023-07-09T02:32:28;100942.00;;;27.50
20103;BMP180;10210;52.284;9.892;2023-07-09T02:34:54;100940.00;;;27.40
20103;BMP180;10210;52.284;9.892;2023-07-09T02:37:26;100938.00;;;27.30
20103;BMP180;10210;52.284;9.892;2023-07-09T02:39:52;100946.00;;;27.20
20103;BMP180;10210;52.284;9.892;2023-07-09T02:42:20;100944.00;;;27.10
20103;BMP180;10210;52.284;9.892;2023-07-09T02:44:46;100948.00;;;27.10
20103;BMP180;10210;52.284;9.892;2023-07-09T02:47:13;100939.00;;;27.00
20103;BMP180;10210;52.284;9.892;2023-07-09T02:49:39;100957.00;;;26.90
20103;BMP180;10210;52.284;9.892;2023-07-09T02:52:06;100942.00;;;26.90
20103;BMP180;10210;52.284;9.892;2023-07-09T02:54:32;100940.00;;;26.90
20103;BMP180;10210;52.284;9.892;2023-07-09T02:56:59;100942.00;;;26.80
20103;BMP180;10210;52.284;9.892;2023-07-09T02:59:25;100943.00;;;26.80
20103;BMP180;10210;52.284;9.892;2023-07-09T03:01:52;100938.00;;;26.70
20103;BMP180;10210;52.284;9.892;2023-07-09T03:04:18;100942.00;;;26.70
20103;BMP180;10210;52.284;9.892;2023-07-09T03:06:46;100943.00;;;26.60
20103;BMP180;10210;52.284;9.892;2023-07-09T03:09:13;100936.00;;;26.60
20103;BMP180;10210;52.284;9.892;2023-07-09T03:11:38;100930.00;;;26.50
20103;BMP180;10210;52.284;9.892;2023-07-09T03:14:04;100933.00;;;26.50
20103;BMP180;10210;52.284;9.892;2023-07-09T03:16:33;100937.00;;;26.40
20103;BMP180;10210;52.284;9.892;2023-07-09T03:19:00;100932.00;;;26.40
20103;BMP180;10210;52.284;9.892;2023-07-09T03:21:27;100934.00;;;26.40
20103;BMP180;10210;52.284;9.892;2023-07-09T03:23:54;100936.00;;;26.30
20103;BMP180;10210;52.284;9.892;2023-07-09T03:26:21;100940.00;;;26.30
20103;BMP180;10210;52.284;9.892;2023-07-09T03:28:47;100948.00;;;26.20
20103;BMP180;10210;52.284;9.892;2023-07-09T03:31:13;100943.00;;;26.20
20103;BMP180;10210;52.284;9.892;2023-07-09T03:33:38;100937.00;;;26.30
20103;BMP180;10210;52.284;9.892;2023-07-09T03:36:05;100934.00;;;26.30
20103;BMP180;10210;52.284;9.892;2023-07-09T03:38:31;100946.00;;;26.30
20103;BMP180;10210;52.284;9.892;2023-07-09T03:40:57;100945.00;;;26.30
20103;BMP180;10210;52.284;9.892;2023-07-09T03:43:24;100949.00;;;26.40
20103;BMP180;10210;52.284;9.892;2023-07-09T03:45:50;100948.00;;;26.40
20103;BMP180;10210;52.284;9.892;2023-07-09T03:48:18;100957.00;;;26.40
20103;BMP180;10210;52.284;9.892;2023-07-09T03:50:46;100954.00;;;26.40
20103;BMP180;10210;52.284;9.892;2023-07-09T03:53:13;100952.00;;;26.30
20103;BMP180;10210;52.284;9.892;2023-07-09T03:55:39;100961.00;;;26.30
20103;BMP180;10210;52.284;9.892;2023-07-09T03:58:05;100960.00;;;26.30
20103;BMP180;10210;52.284;9.892;2023-07-09T04:00:32;100955.00;;;26.30
20103;BMP180;10210;52.284;9.892;2023-07-09T04:02:59;100944.00;;;26.20
20103;BMP180;10210;52.284;9.892;2023-07-09T04:05:27;100948.00;;;26.20
20103;BMP180;10210;52.284;9.892;2023-07-09T04:07:53;100954.00;;;26.20
20103;BMP180;10210;52.284;9.892;2023-07-09T04:10:19;100952.00;;;26.10
20103;BMP180;10210;52.284;9.892;2023-07-09T04:12:45;100958.00;;;26.10
20103;BMP180;10210;52.284;9.892;2023-07-09T04:15:11;100958.00;;;26.10
20103;BMP180;10210;52.284;9.892;2023-07-09T04:17:41;100960.00;;;26.10
20103;BMP180;10210;52.284;9.892;2023-07-09T04:20:09;100961.00;;;26.10
20103;BMP180;10210;52.284;9.892;2023-07-09T04:22:36;100951.00;;;26.10
20103;BMP180;10210;52.284;9.892;2023-07-09T04:25:03;100949.00;;;26.10
20103;BMP180;10210;52.284;9.892;2023-07-09T04:27:30;100953.00;;;26.20
20103;BMP180;10210;52.284;9.892;2023-07-09T04:29:56;100950.00;;;26.20
20103;BMP180;10210;52.284;9.892;2023-07-09T04:32:22;100946.00;;;26.20
20103;BMP180;10210;52.284;9.892;2023-07-09T04:34:48;100950.00;;;26.20
20103;BMP180;10210;52.284;9.892;2023-07-09T04:37:14;100949.00;;;26.20
20103;BMP180;10210;52.284;9.892;2023-07-09T04:39:43;100950.00;;;26.20
20103;BMP180;10210;52.284;9.892;2023-07-09T04:42:14;100951.00;;;26.20
20103;BMP180;10210;52.284;9.892;2023-07-09T04:44:40;100957.00;;;26.20
20103;BMP180;10210;52.284;9.892;2023-07-09T04:47:06;100964.00;;;26.20
20103;BMP180;10210;52.284;9.892;2023-07-09T04:49:32;100953.00;;;26.20
20103;BMP180;10210;52.284;9.892;2023-07-09T04:51:59;100953.00;;;26.30
20103;BMP180;10210;52.284;9.892;2023-07-09T04:54:25;100967.00;;;26.30
20103;BMP180;10210;52.284;9.892;2023-07-09T04:56:51;100949.00;;;26.30
20103;BMP180;10210;52.284;9.892;2023-07-09T04:59:19;100957.00;;;26.30
20103;BMP180;10210;52.284;9.892;2023-07-09T05:01:45;100960.00;;;26.30
20103;BMP180;10210;52.284;9.892;2023-07-09T05:04:10;100961.00;;;26.40
20103;BMP180;10210;52.284;9.892;2023-07-09T05:06:36;100974.00;;;26.40
20103;BMP180;10210;52.284;9.892;2023-07-09T05:09:02;100964.00;;;26.40
20103;BMP180;10210;52.284;9.892;2023-07-09T05:11:28;100959.00;;;26.40
20103;BMP180;10210;52.284;9.892;2023-07-09T05:13:54;100962.00;;;26.40
20103;BMP180;10210;52.284;9.892;2023-07-09T05:16:20;100955.00;;;26.40
20103;BMP180;10210;52.284;9.892;2023-07-09T05:18:46;100961.00;;;26.50
20103;BMP180;10210;52.284;9.892;2023-07-09T05:21:12;100962.00;;;26.50
20103;BMP180;10210;52.284;9.892;2023-07-09T05:23:38;100962.00;;;26.60
20103;BMP180;10210;52.284;9.892;2023-07-09T05:26:04;100963.00;;;26.60
20103;BMP180;10210;52.284;9.892;2023-07-09T05:28:31;100966.00;;;26.70
20103;BMP180;10210;52.284;9.892;2023-07-09T05:31:00;100960.00;;;26.70
20103;BMP180;10210;52.284;9.892;2023-07-09T05:33:25;100960.00;;;26.70
20103;BMP180;10210;52.284;9.892;2023-07-09T05:35:51;100958.00;;;26.80
20103;BMP180;10210;52.284;9.892;2023-07-09T05:38:16;100960.00;;;26.80
20103;BMP180;10210;52.284;9.892;2023-07-09T05:40:43;100968.00;;;26.80
20103;BMP180;10210;52.284;9.892;2023-07-09T05:43:09;100960.00;;;26.90
20103;BMP180;10210;52.284;9.892;2023-07-09T05:45:35;100961.00;;;26.90
20103;BMP180;10210;52.284;9.892;2023-07-09T05:48:01;100971.00;;;26.90
20103;BMP180;10210;52.284;9.892;2023-07-09T05:50:28;100970.00;;;26.90
20103;BMP180;10210;52.284;9.892;2023-07-09T05:52:54;100972.00;;;27.00
20103;BMP180;10210;52.284;9.892;2023-07-09T05:55:20;100970.00;;;27.00
20103;BMP180;10210;52.284;9.892;2023-07-09T05:57:46;100971.00;;;27.00
20103;BMP180;10210;52.284;9.892;2023-07-09T06:00:12;100974.00;;;27.00
20103;BMP180;10210;52.284;9.892;2023-07-09T06:02:38;100976.00;;;27.00
20103;BMP180;10210;52.284;9.892;2023-07-09T06:05:05;100981.00;;;27.00
20103;BMP180;10210;52.284;9.892;2023-07-09T06:07:34;100981.00;;;27.00
20103;BMP180;10210;52.284;9.892;2023-07-09T06:10:00;100986.00;;;27.00
20103;BMP180;10210;52.284;9.892;2023-07-09T06:12:26;100984.00;;;27.10
20103;BMP180;10210;52.284;9.892;2023-07-09T06:14:52;100987.00;;;27.10
20103;BMP180;10210;52.284;9.892;2023-07-09T06:17:18;100987.00;;;27.20
20103;BMP180;10210;52.284;9.892;2023-07-09T06:19:44;100981.00;;;27.20
20103;BMP180;10210;52.284;9.892;2023-07-09T06:22:09;100981.00;;;27.20
20103;BMP180;10210;52.284;9.892;2023-07-09T06:24:35;100988.00;;;27.20
20103;BMP180;10210;52.284;9.892;2023-07-09T06:27:01;100980.00;;;27.30
20103;BMP180;10210;52.284;9.892;2023-07-09T06:29:26;100974.00;;;27.30
20103;BMP180;10210;52.284;9.892;2023-07-09T06:31:52;100979.00;;;27.40
20103;BMP180;10210;52.284;9.892;2023-07-09T06:34:18;100976.00;;;27.40
20103;BMP180;10210;52.284;9.892;2023-07-09T06:36:43;100977.00;;;27.40
20103;BMP180;10210;52.284;9.892;2023-07-09T06:39:09;100982.00;;;27.50
20103;BMP180;10210;52.284;9.892;2023-07-09T06:41:36;100980.00;;;27.50
20103;BMP180;10210;52.284;9.892;2023-07-09T06:44:09;100978.00;;;27.60
20103;BMP180;10210;52.284;9.892;2023-07-09T06:46:35;100976.00;;;27.60
20103;BMP180;10210;52.284;9.892;2023-07-09T06:49:02;100985.00;;;27.80
20103;BMP180;10210;52.284;9.892;2023-07-09T06:51:29;100982.00;;;27.80
20103;BMP180;10210;52.284;9.892;2023-07-09T06:53:55;100985.00;;;27.90
20103;BMP180;10210;52.284;9.892;2023-07-09T06:56:22;100972.00;;;28.10
20103;BMP180;10210;52.284;9.892;2023-07-09T06:58:47;100982.00;;;28.40
20103;BMP180;10210;52.284;9.892;2023-07-09T07:01:13;100982.00;;;28.80
20103;BMP180;10210;52.284;9.892;2023-07-09T07:03:40;100980.00;;;29.20
20103;BMP180;10210;52.284;9.892;2023-07-09T07:06:06;100992.00;;;29.50
20103;BMP180;10210;52.284;9.892;2023-07-09T07:08:33;100987.00;;;29.90
20103;BMP180;10210;52.284;9.892;2023-07-09T07:11:01;101000.00;;;30.30
20103;BMP180;10210;52.284;9.892;2023-07-09T07:13:37;100987.00;;;30.60
20103;BMP180;10210;52.284;9.892;2023-07-09T07:16:08;100995.00;;;31.00
20103;BMP180;10210;52.284;9.892;2023-07-09T07:18:34;101002.00;;;31.30
20103;BMP180;10210;52.284;9.892;2023-07-09T07:21:00;101000.00;;;31.60
20103;BMP180;10210;52.284;9.892;2023-07-09T07:23:27;100994.00;;;31.90
20103;BMP180;10210;52.284;9.892;2023-07-09T07:25:52;100996.00;;;32.30
20103;BMP180;10210;52.284;9.892;2023-07-09T07:28:18;100997.00;;;32.50
20103;BMP180;10210;52.284;9.892;2023-07-09T07:30:44;101003.00;;;32.70
20103;BMP180;10210;52.284;9.892;2023-07-09T07:33:12;101000.00;;;32.90
20103;BMP180;10210;52.284;9.892;2023-07-09T07:35:38;101004.00;;;33.10
20103;BMP180;10210;52.284;9.892;2023-07-09T07:38:04;101004.00;;;33.20
20103;BMP180;10210;52.284;9.892;2023-07-09T07:40:29;101004.00;;;33.30
20103;BMP180;10210;52.284;9.892;2023-07-09T07:42:55;101009.00;;;33.50
20103;BMP180;10210;52.284;9.892;2023-07-09T07:45:21;101010.00;;;33.70
20103;BMP180;10210;52.284;9.892;2023-07-09T07:47:47;101006.00;;;33.90
20103;BMP180;10210;52.284;9.892;2023-07-09T07:50:13;101004.00;;;34.10
20103;BMP180;10210;52.284;9.892;2023-07-09T07:52:39;101014.00;;;34.30
20103;BMP180;10210;52.284;9.892;2023-07-09T07:55:08;101013.00;;;34.40
20103;BMP180;10210;52.284;9.892;2023-07-09T07:57:34;101013.00;;;34.60
20103;BMP180;10210;52.284;9.892;2023-07-09T08:00:00;101009.00;;;34.80
20103;BMP180;10210;52.284;9.892;2023-07-09T08:02:26;101008.00;;;35.00
20103;BMP180;10210;52.284;9.892;2023-07-09T08:04:52;101011.00;;;35.30
20103;BMP180;10210;52.284;9.892;2023-07-09T08:07:19;101013.00;;;35.50
20103;BMP180;10210;52.284;9.892;2023-07-09T08:09:46;101015.00;;;35.80
20103;BMP180;10210;52.284;9.892;2023-07-09T08:12:13;101015.00;;;36.00
20103;BMP180;10210;52.284;9.892;2023-07-09T08:14:41;101015.00;;;36.20
20103;BMP180;10210;52.284;9.892;2023-07-09T08:17:08;101010.00;;;36.30
20103;BMP180;10210;52.284;9.892;2023-07-09T08:19:46;101000.00;;;36.50
20103;BMP180;10210;52.284;9.892;2023-07-09T08:22:12;100999.00;;;36.70
20103;BMP180;10210;52.284;9.892;2023-07-09T08:24:38;101011.00;;;36.90
20103;BMP180;10210;52.284;9.892;2023-07-09T08:27:07;101008.00;;;37.10
20103;BMP180;10210;52.284;9.892;2023-07-09T08:29:33;101012.00;;;37.20
20103;BMP180;10210;52.284;9.892;2023-07-09T08:31:59;101007.00;;;37.30
20103;BMP180;10210;52.284;9.892;2023-07-09T08:34:24;101008.00;;;37.40
20103;BMP180;10210;52.284;9.892;2023-07-09T08:36:50;101003.00;;;37.40
20103;BMP180;10210;52.284;9.892;2023-07-09T08:39:16;101004.00;;;37.50
20103;BMP180;10210;52.284;9.892;2023-07-09T08:42:10;101003.00;;;37.40
20103;BMP180;10210;52.284;9.892;2023-07-09T08:45:07;101005.00;;;37.40
20103;BMP180;10210;52.284;9.892;2023-07-09T08:50:58;101006.00;;;37.40
20103;BMP180;10210;52.284;9.892;2023-07-09T08:53:42;101010.00;;;37.30
20103;BMP180;10210;52.284;9.892;2023-07-09T08:56:10;101001.00;;;37.30
20103;BMP180;10210;52.284;9.892;2023-07-09T08:58:37;100996.00;;;37.40
20103;BMP180;10210;52.284;9.892;2023-07-09T09:01:06;101001.00;;;37.40
20103;BMP180;10210;52.284;9.892;2023-07-09T09:03:56;100997.00;;;37.30
20103;BMP180;10210;52.284;9.892;2023-07-09T09:06:30;101003.00;;;37.30
20103;BMP180;10210;52.284;9.892;2023-07-09T09:09:33;101000.00;;;37.20
20103;BMP180;10210;52.284;9.892;2023-07-09T09:12:25;100999.00;;;37.20
20103;BMP180;10210;52.284;9.892;2023-07-09T09:14:59;100998.00;;;37.20
20103;BMP180;10210;52.284;9.892;2023-07-09T09:17:27;100997.00;;;37.20
20103;BMP180;10210;52.284;9.892;2023-07-09T09:20:00;100999.00;;;37.20
20103;BMP180;10210;52.284;9.892;2023-07-09T09:22:44;100995.00;;;37.10
20103;BMP180;10210;52.284;9.892;2023-07-09T09:27:40;100996.00;;;37.10
20103;BMP180;10210;52.284;9.892;2023-07-09T09:30:14;100996.00;;;37.10
20103;BMP180;10210;52.284;9.892;2023-07-09T09:32:55;101000.00;;;37.10
20103;BMP180;10210;52.284;9.892;2023-07-09T09:35:35;100996.00;;;37.10
20103;BMP180;10210;52.284;9.892;2023-07-09T09:38:10;100993.00;;;37.10
20103;BMP180;10210;52.284;9.892;2023-07-09T09:40:36;101002.00;;;37.10
20103;BMP180;10210;52.284;9.892;2023-07-09T09:43:12;101003.00;;;37.10
20103;BMP180;10210;52.284;9.892;2023-07-09T09:45:40;100998.00;;;37.10
20103;BMP180;10210;52.284;9.892;2023-07-09T09:48:33;101007.00;;;37.00
20103;BMP180;10210;52.284;9.892;2023-07-09T09:51:03;101002.00;;;37.10
20103;BMP180;10210;52.284;9.892;2023-07-09T09:53:38;100996.00;;;37.10
20103;BMP180;10210;52.284;9.892;2023-07-09T09:56:13;100996.00;;;37.10
20103;BMP180;10210;52.284;9.892;2023-07-09T09:58:41;101004.00;;;37.10
20103;BMP180;10210;52.284;9.892;2023-07-09T10:01:16;101004.00;;;37.10
20103;BMP180;10210;52.284;9.892;2023-07-09T10:03:43;101000.00;;;37.10
20103;BMP180;10210;52.284;9.892;2023-07-09T10:09:28;101014.00;;;37.10
20103;BMP180;10210;52.284;9.892;2023-07-09T10:12:34;101002.00;;;37.10
20103;BMP180;10210;52.284;9.892;2023-07-09T10:18:01;100998.00;;;37.10
20103;BMP180;10210;52.284;9.892;2023-07-09T10:26:32;100999.00;;;37.10
20103;BMP180;10210;52.284;9.892;2023-07-09T10:41:02;100989.00;;;37.10
20103;BMP180;10210;52.284;9.892;2023-07-09T10:43:36;100987.00;;;37.20
20103;BMP180;10210;52.284;9.892;2023-07-09T10:46:16;100992.00;;;37.10
20103;BMP180;10210;52.284;9.892;2023-07-09T10:48:47;100988.00;;;37.20
20103;BMP180;10210;52.284;9.892;2023-07-09T10:52:04;100986.00;;;37.10
20103;BMP180;10210;52.284;9.892;2023-07-09T10:55:04;100986.00;;;37.10
20103;BMP180;10210;52.284;9.892;2023-07-09T10:58:05;100985.00;;;37.20
20103;BMP180;10210;52.284;9.892;2023-07-09T11:00:40;100986.00;;;37.20
20103;BMP180;10210;52.284;9.892;2023-07-09T11:03:36;100989.00;;;37.30
20103;BMP180;10210;52.284;9.892;2023-07-09T11:06:20;100985.00;;;37.30
20103;BMP180;10210;52.284;9.892;2023-07-09T11:08:52;100981.00;;;37.30
20103;BMP180;10210;52.284;9.892;2023-07-09T11:11:41;100975.00;;;37.20
20103;BMP180;10210;52.284;9.892;2023-07-09T11:14:36;100983.00;;;37.20
20103;BMP180;10210;52.284;9.892;2023-07-09T11:17:07;100981.00;;;37.30
20103;BMP180;10210;52.284;9.892;2023-07-09T11:19:44;100985.00;;;37.30
20103;BMP180;10210;52.284;9.892;2023-07-09T11:22:34;100989.00;;;37.30
20103;BMP180;10210;52.284;9.892;2023-07-09T11:25:30;100979.00;;;37.30
20103;BMP180;10210;52.284;9.892;2023-07-09T11:28:06;100974.00;;;37.40
20103;BMP180;10210;52.284;9.892;2023-07-09T11:30:32;100984.00;;;37.40
20103;BMP180;10210;52.284;9.892;2023-07-09T11:33:04;100980.00;;;37.40
20103;BMP180;10210;52.284;9.892;2023-07-09T11:35:48;100972.00;;;37.40
20103;BMP180;10210;52.284;9.892;2023-07-09T11:38:25;100961.00;;;37.50
20103;BMP180;10210;52.284;9.892;2023-07-09T11:40:55;100964.00;;;37.50
20103;BMP180;10210;52.284;9.892;2023-07-09T11:43:33;100963.00;;;37.60
20103;BMP180;10210;52.284;9.892;2023-07-09T11:46:17;100970.00;;;37.60
20103;BMP180;10210;52.284;9.892;2023-07-09T11:48:45;100961.00;;;37.70
20103;BMP180;10210;52.284;9.892;2023-07-09T11:51:21;100961.00;;;37.70
20103;BMP180;10210;52.284;9.892;2023-07-09T11:53:53;100953.00;;;37.80
20103;BMP180;10210;52.284;9.892;2023-07-09T11:56:21;100953.00;;;37.90
20103;BMP180;10210;52.284;9.892;2023-07-09T11:58:54;100951.00;;;37.90
20103;BMP180;10210;52.284;9.892;2023-07-09T12:01:34;100951.00;;;37.90
20103;BMP180;10210;52.284;9.892;2023-07-09T12:04:03;100954.00;;;38.00
20103;BMP180;10210;52.284;9.892;2023-07-09T12:06:33;100959.00;;;38.00
20103;BMP180;10210;52.284;9.892;2023-07-09T12:08:59;100948.00;;;38.00
20103;BMP180;10210;52.284;9.892;2023-07-09T12:11:34;100953.00;;;38.00
20103;BMP180;10210;52.284;9.892;2023-07-09T12:14:12;100957.00;;;38.10
20103;BMP180;10210;52.284;9.892;2023-07-09T12:16:42;100947.00;;;38.10
20103;BMP180;10210;52.284;9.892;2023-07-09T12:19:11;100945.00;;;38.20
20103;BMP180;10210;52.284;9.892;2023-07-09T12:21:39;100950.00;;;38.20
20103;BMP180;10210;52.284;9.892;2023-07-09T12:24:27;100943.00;;;38.20
20103;BMP180;10210;52.284;9.892;2023-07-09T12:27:00;100943.00;;;38.30
20103;BMP180;10210;52.284;9.892;2023-07-09T12:29:29;100937.00;;;38.30
20103;BMP180;10210;52.284;9.892;2023-07-09T12:32:02;100934.00;;;38.40
20103;BMP180;10210;52.284;9.892;2023-07-09T12:34:31;100931.00;;;38.40
20103;BMP180;10210;52.284;9.892;2023-07-09T12:36:57;100932.00;;;38.40
20103;BMP180;10210;52.284;9.892;2023-07-09T12:39:27;100929.00;;;38.50
20103;BMP180;10210;52.284;9.892;2023-07-09T12:41:56;100928.00;;;38.50
20103;BMP180;10210;52.284;9.892;2023-07-09T12:44:26;100922.00;;;38.50
20103;BMP180;10210;52.284;9.892;2023-07-09T12:46:53;100928.00;;;38.50
20103;BMP180;10210;52.284;9.892;2023-07-09T12:49:22;100919.00;;;38.60
20103;BMP180;10210;52.284;9.892;2023-07-09T12:51:48;100922.00;;;38.70
20103;BMP180;10210;52.284;9.892;2023-07-09T12:54:20;100925.00;;;38.70
20103;BMP180;10210;52.284;9.892;2023-07-09T12:56:53;100920.00;;;38.70
20103;BMP180;10210;52.284;9.892;2023-07-09T12:59:26;100912.00;;;38.70
20103;BMP180;10210;52.284;9.892;2023-07-09T13:01:59;100916.00;;;38.80
20103;BMP180;10210;52.284;9.892;2023-07-09T13:04:36;100919.00;;;38.80
20103;BMP180;10210;52.284;9.892;2023-07-09T13:07:03;100910.00;;;38.90
20103;BMP180;10210;52.284;9.892;2023-07-09T13:09:30;100906.00;;;38.90
20103;BMP180;10210;52.284;9.892;2023-07-09T13:11:58;100897.00;;;39.00
20103;BMP180;10210;52.284;9.892;2023-07-09T13:14:27;100905.00;;;39.00
20103;BMP180;10210;52.284;9.892;2023-07-09T13:17:07;100892.00;;;39.00
20103;BMP180;10210;52.284;9.892;2023-07-09T13:19:35;100896.00;;;39.10
20103;BMP180;10210;52.284;9.892;2023-07-09T13:22:04;100890.00;;;39.10
20103;BMP180;10210;52.284;9.892;2023-07-09T13:24:32;100891.00;;;39.20
20103;BMP180;10210;52.284;9.892;2023-07-09T13:27:01;100882.00;;;39.20
20103;BMP180;10210;52.284;9.892;2023-07-09T13:29:28;100883.00;;;39.30
20103;BMP180;10210;52.284;9.892;2023-07-09T13:31:54;100883.00;;;39.30
20103;BMP180;10210;52.284;9.892;2023-07-09T13:34:24;100880.00;;;39.30
20103;BMP180;10210;52.284;9.892;2023-07-09T13:36:51;100877.00;;;39.30
20103;BMP180;10210;52.284;9.892;2023-07-09T13:39:20;100868.00;;;39.40
20103;BMP180;10210;52.284;9.892;2023-07-09T13:41:49;100870.00;;;39.40
20103;BMP180;10210;52.284;9.892;2023-07-09T13:44:20;100856.00;;;39.40
20103;BMP180;10210;52.284;9.892;2023-07-09T13:46:46;100866.00;;;39.50
20103;BMP180;10210;52.284;9.892;2023-07-09T13:49:17;100856.00;;;39.50
20103;BMP180;10210;52.284;9.892;2023-07-09T13:51:46;100853.00;;;39.60
20103;BMP180;10210;52.284;9.892;2023-07-09T13:54:24;100850.00;;;39.60
20103;BMP180;10210;52.284;9.892;2023-07-09T13:56:50;100848.00;;;39.70
20103;BMP180;10210;52.284;9.892;2023-07-09T13:59:21;100832.00;;;39.70
20103;BMP180;10210;52.284;9.892;2023-07-09T14:01:49;100832.00;;;39.80
20103;BMP180;10210;52.284;9.892;2023-07-09T14:04:18;100838.00;;;39.90
20103;BMP180;10210;52.284;9.892;2023-07-09T14:06:44;100830.00;;;39.90
20103;BMP180;10210;52.284;9.892;2023-07-09T14:09:14;100838.00;;;40.00
20103;BMP180;10210;52.284;9.892;2023-07-09T14:11:50;100830.00;;;40.00
20103;BMP180;10210;52.284;9.892;2023-07-09T14:14:30;100834.00;;;40.00
20103;BMP180;10210;52.284;9.892;2023-07-09T14:16:57;100833.00;;;40.10
20103;BMP180;10210;52.284;9.892;2023-07-09T14:19:26;100824.00;;;40.10
20103;BMP180;10210;52.284;9.892;2023-07-09T14:21:53;100824.00;;;40.10
20103;BMP180;10210;52.284;9.892;2023-07-09T14:24:29;100824.00;;;40.10
20103;BMP180;10210;52.284;9.892;2023-07-09T14:26:57;100824.00;;;40.10
20103;BMP180;10210;52.284;9.892;2023-07-09T14:29:25;100827.00;;;40.20
20103;BMP180;10210;52.284;9.892;2023-07-09T14:31:53;100824.00;;;40.20
20103;BMP180;10210;52.284;9.892;2023-07-09T14:34:25;100833.00;;;40.20
20103;BMP180;10210;52.284;9.892;2023-07-09T14:36:55;100835.00;;;40.20
20103;BMP180;10210;52.284;9.892;2023-07-09T14:39:21;100835.00;;;40.20
20103;BMP180;10210;52.284;9.892;2023-07-09T14:41:48;100830.00;;;40.20